Time;durP1;ratioP1;P1;durP2;ratioP2;P2;SDS_P1;SDS_P2;PMS_P1;PMS_P2;Temp;Humidity;BMP_temperature;BMP_pressure;BME280_temperature;BME280_humidity;BME280_pressure;Samples;Min_cycle;Max_cycle;Signal;HPM_P1;HPM_P2
2023/11/09 00:06:17;;;;;;;15.83;11.73;;;8.00;99.90;;;;;;4663587;29;20753;-85
2023/11/09 00:31:23;;;;;;;14.20;11.13;;;8.10;99.90;;;;;;4649997;30;20424;-83
2023/11/09 01:01:31;;;;;;;16.27;12.17;;;7.50;99.90;;;;;;4581463;30;20957;-84
2023/11/09 01:27:18;;;;;;;15.40;11.13;;;7.20;99.90;;;;;;4634114;30;20995;-84
2023/11/09 01:52:48;;;;;;;16.13;12.20;;;6.80;99.90;;;;;;4718346;29;21079;-85
2023/11/09 02:23:07;;;;;;;17.60;12.70;;;6.10;99.90;;;;;;4797623;29;20620;-86
2023/11/09 02:58:50;;;;;;;22.87;14.53;;;5.30;99.90;;;;;;4779147;29;20251;-84
2023/11/09 03:29:12;;;;;;;29.57;16.20;;;5.40;99.90;;;;;;4784460;29;20395;-87
2023/11/09 03:54:33;;;;;;;27.07;16.93;;;5.00;99.90;;;;;;4687290;29;20431;-85
2023/11/09 04:24:58;;;;;;;27.90;17.47;;;4.80;99.90;;;;;;4637191;29;20354;-84
2023/11/09 05:30:16;;;;;;;29.80;18.70;;;4.30;99.90;;;;;;4670663;29;20229;-86
2023/11/09 05:56:03;;;;;;;32.80;19.27;;;4.10;99.90;;;;;;4660043;29;20585;-83
2023/11/09 06:26:27;;;;;;;31.60;19.70;;;4.40;99.90;;;;;;4736229;29;20235;-83
2023/11/09 06:51:56;;;;;;;29.77;19.77;;;5.00;99.90;;;;;;4769026;29;20249;-84
2023/11/09 07:12:01;;;;;;;26.23;19.30;;;5.40;99.90;;;;;;4500237;30;20240;-84
2023/11/09 07:57:49;;;;;;;19.43;14.37;;;6.60;99.90;;;;;;4427517;31;20865;-85
2023/11/09 08:17:48;;;;;;;18.70;12.70;;;7.10;99.90;;;;;;4575975;30;20625;-83
2023/11/09 08:53:24;;;;;;;13.00;10.13;;;8.10;99.90;;;;;;4713461;29;20293;-82
2023/11/09 09:23:27;;;;;;;11.47;8.43;;;8.70;99.90;;;;;;4707610;29;20215;-86
2023/11/09 09:49:18;;;;;;;10.13;7.30;;;8.80;99.90;;;;;;4739456;29;20455;-85
2023/11/09 10:14:17;;;;;;;10.57;6.97;;;9.20;99.90;;;;;;4519488;30;20626;-84
2023/11/09 10:35:07;;;;;;;10.40;7.57;;;9.50;99.90;;;;;;4591384;30;21155;-82
2023/11/09 11:10:42;;;;;;;9.13;5.90;;;9.90;97.10;;;;;;4537720;30;20206;-83
2023/11/09 11:15:00;;;;;;;9.43;6.70;;;10.00;96.00;;;;;;4504586;30;20789;-84
2023/11/09 12:25:19;;;;;;;8.17;4.20;;;10.90;90.80;;;;;;4780471;28;20205;-86
2023/11/09 13:06:08;;;;;;;7.77;4.07;;;10.90;91.50;;;;;;4790373;28;20219;-84
2023/11/09 13:10:25;;;;;;;5.47;4.07;;;10.90;92.30;;;;;;4703432;29;20222;-81
2023/11/09 13:35:52;;;;;;;4.23;3.17;;;10.70;92.10;;;;;;4629177;29;20416;-83
2023/11/09 14:01:05;;;;;;;5.10;3.63;;;10.60;93.10;;;;;;4540749;30;20530;-82
2023/11/09 14:22:02;;;;;;;7.20;4.43;;;10.10;96.40;;;;;;4694130;29;20220;-84
2023/11/09 15:37:56;;;;;;;11.87;6.30;;;8.60;99.90;;;;;;4590440;30;20456;-83
2023/11/09 15:48:03;;;;;;;10.07;6.60;;;8.60;99.90;;;;;;5747815;23;20241;-85
2023/11/09 16:28:47;;;;;;;13.00;8.83;;;8.50;99.90;;;;;;4836828;28;20285;-86
2023/11/09 16:33:07;;;;;;;11.67;8.40;;;8.30;99.90;;;;;;4709130;29;20220;-83
2023/11/09 16:53:24;;;;;;;12.83;8.67;;;8.00;99.90;;;;;;4711493;29;20243;-84
2023/11/09 17:14:25;;;;;;;10.93;7.93;;;8.00;99.90;;;;;;4598966;30;20293;-85
2023/11/09 17:18:45;;;;;;;10.20;8.20;;;8.00;99.90;;;;;;4550717;30;20560;-85
2023/11/09 17:44:10;;;;;;;11.93;8.47;;;7.80;99.90;;;;;;4611785;30;20676;-84
2023/11/09 18:04:36;;;;;;;13.80;8.47;;;7.80;99.90;;;;;;4550671;30;20578;-83
2023/11/09 18:30:23;;;;;;;12.57;8.07;;;7.50;99.90;;;;;;4639154;30;20433;-85
2023/11/09 19:05:18;;;;;;;15.43;9.93;;;7.10;99.90;;;;;;4687782;29;20562;-86
2023/11/09 19:31:25;;;;;;;17.93;9.57;;;7.20;99.90;;;;;;4790964;29;20206;-85
2023/11/09 19:35:38;;;;;;;13.27;9.83;;;7.20;99.90;;;;;;4651794;29;20867;-84
2023/11/09 20:00:59;;;;;;;13.43;9.53;;;7.00;99.90;;;;;;4666303;30;20233;-87
2023/11/09 20:57:14;;;;;;;16.10;11.83;;;6.20;99.90;;;;;;4646131;30;20701;-88
2023/11/09 21:17:18;;;;;;;22.10;13.90;;;6.10;99.90;;;;;;4589038;30;21047;-86
2023/11/09 21:52:30;;;;;;;19.17;13.43;;;6.10;99.90;;;;;;4583211;30;20381;-84
2023/11/09 22:38:25;;;;;;;18.97;13.13;;;5.80;99.90;;;;;;4632357;30;20652;-87
2023/11/09 22:54:03;;;;;;;20.30;13.37;;;5.50;99.90;;;;;;4667381;30;20242;-86
2023/11/09 23:29:25;;;;;;;19.03;12.50;;;5.20;99.90;;;;;;4669190;30;20491;-87
2023/11/09 23:59:32;;;;;;;14.60;11.53;;;4.90;99.90;;;;;;4563199;30;20229;-87
